Time;durP1;ratioP1;P1;durP2;ratioP2;P2;SDS_P1;SDS_P2;PMS_P1;PMS_P2;Temp;Humidity;BMP_temperature;BMP_pressure;BME280_temperature;BME280_humidity;BME280_pressure;Samples;Min_cycle;Max_cycle;Signal;HPM_P1;HPM_P2
2021/03/15 00:00:20;;;;;;;;;;;7.30;91.10;;;;;;4333373;33;20023;-78
2021/03/15 00:02:47;;;;;;;;;;;7.30;91.20;;;;;;4333352;33;25530;-78
2021/03/15 00:05:18;;;;;;;;;;;7.30;91.10;;;;;;4320815;33;20057;-77
2021/03/15 00:07:47;;;;;;;;;;;7.20;91.50;;;;;;4334097;33;20036;-77
2021/03/15 00:10:14;;;;;;;;;;;7.30;91.20;;;;;;4333401;33;27116;-77
2021/03/15 00:12:44;;;;;;;;;;;7.20;91.20;;;;;;4319725;33;41279;-78
2021/03/15 00:15:14;;;;;;;;;;;7.20;91.20;;;;;;4307473;33;34308;-78
2021/03/15 00:17:41;;;;;;;;;;;7.30;91.20;;;;;;4333502;33;29139;-77
2021/03/15 00:20:11;;;;;;;;;;;7.20;91.20;;;;;;4334129;33;20001;-77
2021/03/15 00:22:38;;;;;;;;;;;7.30;91.20;;;;;;4334026;33;20065;-77
2021/03/15 00:25:08;;;;;;;;;;;7.30;91.40;;;;;;4320577;33;20017;-78
2021/03/15 00:27:39;;;;;;;;;;;7.20;91.40;;;;;;4334114;33;20023;-78
2021/03/15 00:30:10;;;;;;;;;;;7.20;91.50;;;;;;4320196;33;27382;-78
2021/03/15 00:32:37;;;;;;;;;;;7.20;91.50;;;;;;4333029;33;39674;-78
2021/03/15 00:35:10;;;;;;;;;;;7.20;91.50;;;;;;4320495;33;19998;-79
2021/03/15 00:37:39;;;;;;;;;;;7.20;91.50;;;;;;4320950;33;20010;-78
2021/03/15 00:40:08;;;;;;;;;;;7.20;91.80;;;;;;4332062;33;28185;-78
2021/03/15 00:42:38;;;;;;;;;;;7.20;91.80;;;;;;4320539;33;20402;-77
2021/03/15 00:45:07;;;;;;;;;;;7.20;91.80;;;;;;4320470;33;20016;-79
2021/03/15 00:47:36;;;;;;;;;;;7.20;92.00;;;;;;4320293;33;20021;-79
2021/03/15 00:50:08;;;;;;;;;;;7.10;91.90;;;;;;4333647;33;20027;-79
2021/03/15 00:52:37;;;;;;;;;;;7.10;91.90;;;;;;4333393;33;19997;-79
2021/03/15 00:55:07;;;;;;;;;;;7.20;91.90;;;;;;4319952;33;20409;-79
2021/03/15 00:57:33;;;;;;;;;;;7.20;92.00;;;;;;4319291;33;28835;-78
2021/03/15 01:00:03;;;;;;;;;;;7.10;91.90;;;;;;4320140;33;20009;-79
2021/03/15 01:02:35;;;;;;;;;;;7.20;92.00;;;;;;4333021;33;20018;-79
2021/03/15 01:05:03;;;;;;;;;;;7.20;92.00;;;;;;4332143;33;39886;-79
2021/03/15 01:07:32;;;;;;;;;;;7.20;92.10;;;;;;4319336;33;20012;-80
2021/03/15 01:10:01;;;;;;;;;;;7.10;92.00;;;;;;4320627;33;20013;-79
2021/03/15 01:12:34;;;;;;;;;;;7.10;92.10;;;;;;4319925;33;20015;-79
2021/03/15 01:15:04;;;;;;;;;;;7.10;92.10;;;;;;4307675;33;20003;-79
2021/03/15 01:17:34;;;;;;;;;;;7.20;92.20;;;;;;4331921;33;20018;-79
2021/03/15 01:20:01;;;;;;;;;;;7.10;92.40;;;;;;4333345;33;20049;-80
2021/03/15 01:22:33;;;;;;;;;;;7.10;92.30;;;;;;4333623;33;20010;-80
2021/03/15 01:25:00;;;;;;;;;;;7.10;92.50;;;;;;4332455;33;40027;-79
2021/03/15 01:27:30;;;;;;;;;;;7.10;92.70;;;;;;4333451;33;20061;-80
2021/03/15 01:30:02;;;;;;;;;;;7.00;92.70;;;;;;4307812;33;20001;-79
2021/03/15 01:32:34;;;;;;;;;;;7.00;92.70;;;;;;4333355;33;20001;-79
2021/03/15 01:35:03;;;;;;;;;;;7.00;92.60;;;;;;4319673;33;20009;-78
2021/03/15 01:37:32;;;;;;;;;;;7.10;92.60;;;;;;4318695;33;29473;-77
2021/03/15 01:39:59;;;;;;;;;;;7.10;92.60;;;;;;4319036;33;38750;-77
2021/03/15 01:42:26;;;;;;;;;;;7.10;92.70;;;;;;4319293;33;20057;-78
2021/03/15 01:44:56;;;;;;;;;;;7.00;92.90;;;;;;4333137;33;20009;-77
2021/03/15 01:47:23;;;;;;;;;;;7.10;93.00;;;;;;4331764;33;20053;-77
2021/03/15 01:49:57;;;;;;;;;;;7.10;92.90;;;;;;4332733;33;20386;-77
2021/03/15 01:52:24;;;;;;;;;;;7.00;92.80;;;;;;4332946;33;20005;-77
2021/03/15 01:54:54;;;;;;;;;;;7.10;92.90;;;;;;4332232;33;20002;-77
2021/03/15 01:57:23;;;;;;;;;;;7.10;92.80;;;;;;4318239;33;33225;-77
2021/03/15 01:59:49;;;;;;;;;;;7.10;92.80;;;;;;4332278;33;20010;-77
2021/03/15 02:02:18;;;;;;;;;;;7.10;93.00;;;;;;4319103;33;20065;-77
2021/03/15 02:04:49;;;;;;;;;;;7.10;92.90;;;;;;4319184;33;20014;-77
2021/03/15 02:07:26;;;;;;;;;;;7.10;92.90;;;;;;4320594;33;20013;-77
2021/03/15 02:09:55;;;;;;;;;;;7.20;92.80;;;;;;4318595;33;33186;-76
2021/03/15 02:12:32;;;;;;;;;;;7.20;92.80;;;;;;4306804;33;20371;-77
2021/03/15 02:15:04;;;;;;;;;;;7.20;92.90;;;;;;4319602;33;20002;-77
2021/03/15 02:17:40;;;;;;;;;;;7.20;92.90;;;;;;4332550;33;20009;-77
2021/03/15 02:20:26;;;;;;;;;;;7.20;93.00;;;;;;4332485;33;20467;-77
2021/03/15 02:23:02;;;;;;;;;;;7.20;93.10;;;;;;4332108;33;20056;-77
2021/03/15 02:25:38;;;;;;;;;;;7.20;93.10;;;;;;4319419;33;20009;-77
2021/03/15 02:28:22;;;;;;;;;;;7.20;93.10;;;;;;4332012;33;20109;-77
2021/03/15 02:31:08;;;;;;;;;;;7.20;93.10;;;;;;4318602;33;25810;-77
2021/03/15 02:33:53;;;;;;;;;;;7.20;93.10;;;;;;4331515;33;20422;-78
2021/03/15 02:36:29;;;;;;;;;;;7.20;93.00;;;;;;4319729;33;20437;-79
2021/03/15 02:39:00;;;;;;;;;;;7.20;93.10;;;;;;4318007;33;37538;-79
2021/03/15 02:41:34;;;;;;;;;;;7.20;93.20;;;;;;4331139;33;19993;-79
2021/03/15 02:44:05;;;;;;;;;;;7.30;93.10;;;;;;4318556;33;20016;-79
2021/03/15 02:46:32;;;;;;;;;;;7.30;93.10;;;;;;4318341;33;22866;-79
2021/03/15 02:49:02;;;;;;;;;;;7.30;93.10;;;;;;4318223;33;31912;-79
2021/03/15 02:51:30;;;;;;;;;;;7.30;93.10;;;;;;4318098;33;37101;-79
2021/03/15 02:54:01;;;;;;;;;;;7.30;93.00;;;;;;4318439;33;20023;-79
2021/03/15 02:56:29;;;;;;;;;;;7.40;93.10;;;;;;4319082;33;20098;-79
2021/03/15 02:59:03;;;;;;;;;;;7.40;93.00;;;;;;4319198;33;20017;-79
2021/03/15 03:01:36;;;;;;;;;;;7.40;92.90;;;;;;4306505;33;20008;-79
2021/03/15 03:04:04;;;;;;;;;;;7.50;93.00;;;;;;4318754;33;20094;-79
2021/03/15 03:06:37;;;;;;;;;;;7.40;93.10;;;;;;4332104;33;20010;-79
2021/03/15 03:09:07;;;;;;;;;;;7.40;93.00;;;;;;4331898;33;20032;-79
2021/03/15 03:11:40;;;;;;;;;;;7.40;93.20;;;;;;4318543;33;20015;-79
2021/03/15 03:14:11;;;;;;;;;;;7.50;93.20;;;;;;4331695;33;20029;-79
2021/03/15 03:16:41;;;;;;;;;;;7.40;93.20;;;;;;4318082;33;31944;-79
2021/03/15 03:19:14;;;;;;;;;;;7.50;93.20;;;;;;4331146;33;27865;-78
2021/03/15 03:21:44;;;;;;;;;;;7.50;93.20;;;;;;4318960;33;20065;-79
2021/03/15 03:24:14;;;;;;;;;;;7.40;93.20;;;;;;4318289;33;20006;-79
2021/03/15 03:26:44;;;;;;;;;;;7.40;93.30;;;;;;4332351;33;20013;-79
2021/03/15 03:29:12;;;;;;;;;;;7.50;93.30;;;;;;4334730;33;20010;-79
2021/03/15 03:31:42;;;;;;;;;;;7.40;93.20;;;;;;4321162;33;20075;-79
2021/03/15 03:34:14;;;;;;;;;;;7.50;93.30;;;;;;4321901;33;20206;-79
2021/03/15 03:36:44;;;;;;;;;;;7.50;93.30;;;;;;4335057;33;20032;-79
2021/03/15 03:39:14;;;;;;;;;;;7.50;93.30;;;;;;4332827;33;42025;-79
2021/03/15 03:41:44;;;;;;;;;;;7.50;93.30;;;;;;4334682;33;20010;-79
2021/03/15 03:44:14;;;;;;;;;;;7.50;93.30;;;;;;4333662;33;20059;-79
2021/03/15 03:46:45;;;;;;;;;;;7.50;93.30;;;;;;4321455;33;20017;-79
2021/03/15 03:49:15;;;;;;;;;;;7.50;93.40;;;;;;4320746;33;36594;-80
2021/03/15 03:51:49;;;;;;;;;;;7.50;93.40;;;;;;4320134;33;30395;-80
2021/03/15 03:54:31;;;;;;;;;;;7.50;93.40;;;;;;4321633;33;20013;-80
2021/03/15 03:57:05;;;;;;;;;;;7.50;93.30;;;;;;4334618;33;20081;-79
2021/03/15 03:59:34;;;;;;;;;;;7.60;93.20;;;;;;4321273;33;20013;-80
2021/03/15 04:02:09;;;;;;;;;;;7.60;93.20;;;;;;4333210;33;20053;-79
2021/03/15 04:04:47;;;;;;;;;;;7.60;93.20;;;;;;4321501;33;20018;-79
2021/03/15 04:07:24;;;;;;;;;;;7.60;93.30;;;;;;4334467;33;20404;-80
2021/03/15 04:09:58;;;;;;;;;;;7.60;93.40;;;;;;4334569;33;20023;-81
2021/03/15 04:12:28;;;;;;;;;;;7.60;93.30;;;;;;4334469;33;20023;-80
2021/03/15 04:15:01;;;;;;;;;;;7.60;93.30;;;;;;4333890;33;20065;-80
2021/03/15 04:17:33;;;;;;;;;;;7.60;93.30;;;;;;4334172;33;20046;-80
2021/03/15 04:20:08;;;;;;;;;;;7.50;93.20;;;;;;4320879;33;19998;-80
2021/03/15 04:22:47;;;;;;;;;;;7.60;93.30;;;;;;4320605;33;20017;-80
2021/03/15 04:25:16;;;;;;;;;;;7.60;93.30;;;;;;4334338;33;20021;-80
2021/03/15 04:27:50;;;;;;;;;;;7.60;93.40;;;;;;4320982;33;20069;-80
2021/03/15 04:30:19;;;;;;;;;;;7.60;93.40;;;;;;4333185;33;34900;-80
2021/03/15 04:32:53;;;;;;;;;;;7.50;93.30;;;;;;4320565;33;32738;-80
2021/03/15 04:35:25;;;;;;;;;;;7.60;93.40;;;;;;4320313;33;20008;-80
2021/03/15 04:37:55;;;;;;;;;;;7.50;93.40;;;;;;4320501;33;20426;-80
2021/03/15 04:40:29;;;;;;;;;;;7.50;93.40;;;;;;4333965;33;20009;-80
2021/03/15 04:42:59;;;;;;;;;;;7.60;93.40;;;;;;4332735;33;34633;-80
2021/03/15 04:45:30;;;;;;;;;;;7.50;93.40;;;;;;4333799;33;20020;-79
2021/03/15 04:48:03;;;;;;;;;;;7.60;93.30;;;;;;4333358;33;26766;-79
2021/03/15 04:50:31;;;;;;;;;;;7.60;93.30;;;;;;4319738;33;37292;-80
2021/03/15 04:53:01;;;;;;;;;;;7.50;93.30;;;;;;4333363;33;20446;-80
2021/03/15 04:55:34;;;;;;;;;;;7.60;93.30;;;;;;4320542;33;20049;-80
2021/03/15 04:58:05;;;;;;;;;;;7.60;93.30;;;;;;4319505;33;38027;-80
2021/03/15 05:00:37;;;;;;;;;;;7.60;93.30;;;;;;4318980;33;38631;-80
2021/03/15 05:03:06;;;;;;;;;;;7.60;93.30;;;;;;4333205;33;20017;-79
2021/03/15 05:05:37;;;;;;;;;;;7.60;93.30;;;;;;4319816;33;20133;-80
2021/03/15 05:08:05;;;;;;;;;;;7.60;93.30;;;;;;4319379;33;40619;-79
2021/03/15 05:10:33;;;;;;;;;;;7.60;93.20;;;;;;4319669;33;24560;-80
2021/03/15 05:13:03;;;;;;;;;;;7.60;93.20;;;;;;4333306;33;20001;-79
2021/03/15 05:15:35;;;;;;;;;;;7.60;93.20;;;;;;4332273;33;37192;-80
2021/03/15 05:18:03;;;;;;;;;;;7.60;93.10;;;;;;4332774;33;28622;-80
2021/03/15 05:20:35;;;;;;;;;;;7.60;93.10;;;;;;4319772;33;20005;-80
2021/03/15 05:23:06;;;;;;;;;;;7.60;93.10;;;;;;4319454;33;31595;-79
2021/03/15 05:25:33;;;;;;;;;;;7.60;93.10;;;;;;4319820;33;20005;-79
2021/03/15 05:28:04;;;;;;;;;;;7.60;93.10;;;;;;4319761;33;20009;-79
2021/03/15 05:30:31;;;;;;;;;;;7.70;93.10;;;;;;4333197;33;20045;-79
2021/03/15 05:33:03;;;;;;;;;;;7.60;93.10;;;;;;4319446;33;20037;-79
2021/03/15 05:35:30;;;;;;;;;;;7.60;93.10;;;;;;4306761;33;34907;-80
2021/03/15 05:38:00;;;;;;;;;;;7.60;93.10;;;;;;4319098;33;20020;-79
2021/03/15 05:40:30;;;;;;;;;;;7.60;93.10;;;;;;4319489;33;26670;-80
2021/03/15 05:42:58;;;;;;;;;;;7.60;93.10;;;;;;4318435;33;32573;-79
2021/03/15 05:45:42;;;;;;;;;;;7.60;93.10;;;;;;4332664;33;20014;-80
2021/03/15 05:48:41;;;;;;;;;;;7.60;93.10;;;;;;4319766;33;20082;-80
2021/03/15 05:51:34;;;;;;;;;;;7.60;93.10;;;;;;4319466;33;20017;-79
2021/03/15 05:54:16;;;;;;;;;;;7.60;93.10;;;;;;4319345;33;20013;-80
2021/03/15 05:56:46;;;;;;;;;;;7.60;93.10;;;;;;4319511;33;20012;-79
2021/03/15 05:59:31;;;;;;;;;;;7.60;93.10;;;;;;4332910;33;20053;-79
2021/03/15 06:02:24;;;;;;;;;;;7.60;93.10;;;;;;4319069;33;20016;-80
2021/03/15 06:05:10;;;;;;;;;;;7.60;93.10;;;;;;4304885;33;20053;-80
2021/03/15 06:07:40;;;;;;;;;;;7.60;93.10;;;;;;4319165;33;20411;-80
2021/03/15 06:10:16;;;;;;;;;;;7.60;93.10;;;;;;4332685;33;20019;-79
2021/03/15 06:12:54;;;;;;;;;;;7.50;93.20;;;;;;4332418;33;20017;-80
2021/03/15 06:15:37;;;;;;;;;;;7.50;93.10;;;;;;4332691;33;20021;-80
2021/03/15 06:18:12;;;;;;;;;;;7.50;93.10;;;;;;4319338;33;20468;-79
2021/03/15 06:20:46;;;;;;;;;;;7.50;93.50;;;;;;4332428;33;20072;-80
2021/03/15 06:23:15;;;;;;;;;;;7.50;93.10;;;;;;4332792;33;20016;-80
2021/03/15 06:25:48;;;;;;;;;;;7.50;93.10;;;;;;4306861;33;20006;-80
2021/03/15 06:28:18;;;;;;;;;;;7.50;93.10;;;;;;4318796;33;20016;-79
2021/03/15 06:30:52;;;;;;;;;;;7.50;93.10;;;;;;4307625;33;19997;-79
2021/03/15 06:33:28;;;;;;;;;;;7.50;93.20;;;;;;4318925;33;20474;-79
2021/03/15 06:35:58;;;;;;;;;;;7.50;93.10;;;;;;4332239;33;20017;-79
2021/03/15 06:38:29;;;;;;;;;;;7.40;93.10;;;;;;4331940;33;20009;-80
2021/03/15 06:41:02;;;;;;;;;;;7.40;93.10;;;;;;4332248;33;20061;-80
2021/03/15 06:43:32;;;;;;;;;;;7.50;93.20;;;;;;4332369;33;20013;-80
2021/03/15 06:46:04;;;;;;;;;;;7.40;93.10;;;;;;4332214;33;20068;-79
2021/03/15 06:48:34;;;;;;;;;;;7.50;93.10;;;;;;4331261;33;20770;-79
2021/03/15 06:51:06;;;;;;;;;;;7.50;93.20;;;;;;4306421;33;20049;-79
2021/03/15 06:53:50;;;;;;;;;;;7.50;93.20;;;;;;4332516;33;20006;-80
2021/03/15 06:56:24;;;;;;;;;;;7.50;93.10;;;;;;4331226;33;20052;-79
2021/03/15 06:58:53;;;;;;;;;;;7.50;93.10;;;;;;4331114;33;20029;-79
2021/03/15 07:01:22;;;;;;;;;;;7.50;93.10;;;;;;4317803;33;20020;-80
2021/03/15 07:04:03;;;;;;;;;;;7.50;93.10;;;;;;4289502;33;20020;-80
2021/03/15 07:06:35;;;;;;;;;;;7.50;93.10;;;;;;4302779;33;20076;-79
2021/03/15 07:09:11;;;;;;;;;;;7.50;93.10;;;;;;4302956;33;20005;-79
2021/03/15 07:11:42;;;;;;;;;;;7.40;93.10;;;;;;4301987;33;20002;-80
2021/03/15 07:14:25;;;;;;;;;;;7.50;93.10;;;;;;4300756;33;26872;-79
2021/03/15 07:17:01;;;;;;;;;;;7.40;93.10;;;;;;4301399;33;20067;-79
2021/03/15 07:19:31;;;;;;;;;;;7.40;93.10;;;;;;4300191;33;41422;-79
2021/03/15 07:22:16;;;;;;;;;;;7.40;93.10;;;;;;4312609;33;39093;-79
2021/03/15 07:24:44;;;;;;;;;;;7.40;93.10;;;;;;4312866;33;31122;-79
2021/03/15 07:27:11;;;;;;;;;;;7.40;93.00;;;;;;4312336;33;42519;-79
2021/03/15 07:29:39;;;;;;;;;;;7.40;93.00;;;;;;4301696;33;39148;-79
2021/03/15 07:32:08;;;;;;;;;;;7.40;93.00;;;;;;4299988;33;42948;-80
2021/03/15 07:34:38;;;;;;;;;;;7.40;93.00;;;;;;4302943;33;20024;-79
2021/03/15 07:37:09;;;;;;;;;;;7.50;93.00;;;;;;4313683;33;20069;-79
2021/03/15 07:39:53;;;;;;;;;;;7.40;93.00;;;;;;4300418;33;39863;-79
2021/03/15 07:42:23;;;;;;;;;;;7.40;93.00;;;;;;4300431;33;33701;-79
2021/03/15 07:44:52;;;;;;;;;;;7.40;93.00;;;;;;4301079;33;20076;-79
2021/03/15 07:47:27;;;;;;;;;;;7.40;93.10;;;;;;4301055;33;19998;-79
2021/03/15 07:49:58;;;;;;;;;;;7.40;93.10;;;;;;4288443;33;38700;-79
2021/03/15 07:52:38;;;;;;;;;;;7.40;93.10;;;;;;4301042;33;20016;-79
2021/03/15 07:55:11;;;;;;;;;;;7.40;93.10;;;;;;4302429;33;20016;-79
2021/03/15 07:57:40;;;;;;;;;;;7.40;93.10;;;;;;4301807;33;20127;-79
2021/03/15 08:00:10;;;;;;;;;;;7.40;93.20;;;;;;4301126;33;20420;-79
2021/03/15 08:02:41;;;;;;;;;;;7.40;93.10;;;;;;4316134;33;33366;-79
2021/03/15 08:05:11;;;;;;;;;;;7.40;93.10;;;;;;4317646;33;38822;-80
2021/03/15 08:07:40;;;;;;;;;;;7.40;93.10;;;;;;4331474;33;20390;-80
2021/03/15 08:10:10;;;;;;;;;;;7.40;93.10;;;;;;4331191;33;20049;-80
2021/03/15 08:12:37;;;;;;;;;;;7.40;93.10;;;;;;4331418;33;35185;-79
2021/03/15 08:15:08;;;;;;;;;;;7.40;93.10;;;;;;4332300;33;41764;-79
2021/03/15 08:17:45;;;;;;;;;;;7.40;93.10;;;;;;4319981;33;38385;-80
2021/03/15 08:20:13;;;;;;;;;;;7.40;93.10;;;;;;4319566;33;35260;-79
2021/03/15 08:22:44;;;;;;;;;;;7.40;93.10;;;;;;4333367;33;31799;-80
2021/03/15 08:25:12;;;;;;;;;;;7.40;93.10;;;;;;4332986;33;43141;-79
2021/03/15 08:27:41;;;;;;;;;;;7.40;93.10;;;;;;4320860;33;20378;-79
2021/03/15 08:30:22;;;;;;;;;;;7.50;93.00;;;;;;4332712;33;36075;-80
2021/03/15 08:32:49;;;;;;;;;;;7.40;93.00;;;;;;4333081;33;37143;-80
2021/03/15 08:35:22;;;;;;;;;;;7.40;93.00;;;;;;4320162;33;37946;-79
2021/03/15 08:37:53;;;;;;;;;;;7.50;93.00;;;;;;4319778;33;40929;-79
2021/03/15 08:40:40;;;;;;;;;;;7.50;93.00;;;;;;4333263;33;33036;-79
2021/03/15 08:43:13;;;;;;;;;;;7.50;93.00;;;;;;4310057;33;38430;-80
2021/03/15 08:45:47;;;;;;;;;;;7.50;93.00;;;;;;4320586;33;20015;-79
2021/03/15 08:48:16;;;;;;;;;;;7.50;92.90;;;;;;4333570;33;20465;-80
2021/03/15 08:50:47;;;;;;;;;;;7.50;92.90;;;;;;4333704;33;20032;-79
2021/03/15 08:53:33;;;;;;;;;;;7.50;93.00;;;;;;4332702;33;41796;-79
2021/03/15 08:56:05;;;;;;;;;;;7.50;92.90;;;;;;4332269;33;20064;-79
2021/03/15 08:58:38;;;;;;;;;;;7.50;93.00;;;;;;4319999;33;20020;-79
2021/03/15 09:01:06;;;;;;;;;;;7.50;93.00;;;;;;4332668;33;20021;-80
2021/03/15 09:03:46;;;;;;;;;;;7.50;92.90;;;;;;4320168;33;20006;-79
2021/03/15 09:06:13;;;;;;;;;;;7.50;92.90;;;;;;4333243;33;20048;-79
2021/03/15 09:09:00;;;;;;;;;;;7.50;92.90;;;;;;4320480;33;20019;-79
2021/03/15 09:11:40;;;;;;;;;;;7.50;92.90;;;;;;4308294;33;20411;-79
2021/03/15 09:14:25;;;;;;;;;;;7.50;92.90;;;;;;4319332;33;31283;-79
2021/03/15 09:16:53;;;;;;;;;;;7.60;93.00;;;;;;4319292;33;39103;-79
2021/03/15 09:19:20;;;;;;;;;;;7.50;92.90;;;;;;4332241;33;43313;-79
2021/03/15 09:21:52;;;;;;;;;;;7.50;92.90;;;;;;4319281;33;30033;-79
2021/03/15 09:24:43;;;;;;;;;;;7.50;93.00;;;;;;4332305;33;20025;-79
2021/03/15 09:27:30;;;;;;;;;;;7.50;92.90;;;;;;4311360;33;20124;-78
2021/03/15 09:29:57;;;;;;;;;;;7.50;93.30;;;;;;4307691;33;20014;-79
2021/03/15 09:32:29;;;;;;;;;;;7.50;92.90;;;;;;4319890;33;20065;-79
2021/03/15 09:35:14;;;;;;;;;;;7.50;92.80;;;;;;4320481;33;20013;-79
2021/03/15 09:37:51;;;;;;;;;;;7.60;92.90;;;;;;4319494;33;20061;-80
2021/03/15 09:40:19;;;;;;;;;;;7.60;92.80;;;;;;4320127;33;20015;-80
2021/03/15 09:42:52;;;;;;;;;;;7.60;92.80;;;;;;4333101;33;20015;-80
2021/03/15 09:45:30;;;;;;;;;;;7.60;92.80;;;;;;4319995;33;20023;-80
2021/03/15 09:47:59;;;;;;;;;;;7.60;92.80;;;;;;4319243;33;20013;-79
2021/03/15 09:50:31;;;;;;;;;;;7.60;92.90;;;;;;4318838;33;32132;-79
2021/03/15 09:53:13;;;;;;;;;;;7.60;92.80;;;;;;4332099;33;35603;-80
2021/03/15 09:55:42;;;;;;;;;;;7.60;92.80;;;;;;4318668;33;36544;-79
2021/03/15 09:58:16;;;;;;;;;;;7.60;92.70;;;;;;4319274;33;20020;-80
2021/03/15 10:00:46;;;;;;;;;;;7.60;92.70;;;;;;4318518;33;42284;-80
2021/03/15 10:03:20;;;;;;;;;;;7.60;92.70;;;;;;4331191;33;42379;-80
2021/03/15 10:05:50;;;;;;;;;;;7.60;92.60;;;;;;4332841;33;20010;-80
2021/03/15 10:08:17;;;;;;;;;;;7.60;92.50;;;;;;4307368;33;20335;-79
2021/03/15 10:10:53;;;;;;;;;;;7.60;92.50;;;;;;4331603;33;20024;-80
2021/03/15 10:13:20;;;;;;;;;;;7.60;92.50;;;;;;4331597;33;39717;-80
2021/03/15 10:15:48;;;;;;;;;;;7.70;92.50;;;;;;4331924;33;19993;-80
2021/03/15 10:18:24;;;;;;;;;;;7.70;92.50;;;;;;4319304;33;20047;-79
2021/03/15 10:20:51;;;;;;;;;;;7.70;92.50;;;;;;4317967;33;45441;-79
2021/03/15 10:23:19;;;;;;;;;;;7.70;92.40;;;;;;4331324;33;35861;-80
2021/03/15 10:25:58;;;;;;;;;;;7.70;92.50;;;;;;4319112;33;20031;-80
2021/03/15 10:28:28;;;;;;;;;;;7.80;92.40;;;;;;4331634;33;39464;-80
2021/03/15 10:31:19;;;;;;;;;;;7.70;92.30;;;;;;4332696;33;20013;-80
2021/03/15 10:33:46;;;;;;;;;;;7.80;92.30;;;;;;4331181;33;29029;-79
2021/03/15 10:36:17;;;;;;;;;;;7.70;92.20;;;;;;4318024;33;37554;-80
2021/03/15 10:38:44;;;;;;;;;;;7.70;92.10;;;;;;4318248;33;37278;-80
2021/03/15 10:41:10;;;;;;;;;;;7.70;92.10;;;;;;4331102;33;38292;-80
2021/03/15 10:43:37;;;;;;;;;;;7.80;92.10;;;;;;4331268;33;29563;-80
2021/03/15 10:46:18;;;;;;;;;;;7.70;92.00;;;;;;4318292;33;26781;-79
2021/03/15 10:48:49;;;;;;;;;;;7.80;91.90;;;;;;4318888;33;19998;-81
2021/03/15 10:51:24;;;;;;;;;;;7.80;92.00;;;;;;4331898;33;20154;-80
2021/03/15 10:54:33;;;;;;;;;;;7.80;92.00;;;;;;4319021;33;20002;-79
2021/03/15 10:57:11;;;;;;;;;;;7.80;92.10;;;;;;4331035;33;38259;-80
2021/03/15 10:59:43;;;;;;;;;;;7.80;92.00;;;;;;4319352;33;20060;-80
2021/03/15 11:02:21;;;;;;;;;;;7.80;92.00;;;;;;4331321;33;20470;-80
2021/03/15 11:04:59;;;;;;;;;;;7.80;92.10;;;;;;4317690;33;34938;-80
2021/03/15 11:07:30;;;;;;;;;;;7.90;92.00;;;;;;4330534;33;20375;-80
2021/03/15 11:09:59;;;;;;;;;;;7.90;91.90;;;;;;4331637;33;24400;-80
2021/03/15 11:12:39;;;;;;;;;;;7.90;92.00;;;;;;4318466;33;23355;-80
2021/03/15 11:15:15;;;;;;;;;;;7.90;92.00;;;;;;4317238;33;45524;-80
2021/03/15 11:17:42;;;;;;;;;;;8.00;92.10;;;;;;4331105;33;32063;-80
2021/03/15 11:20:17;;;;;;;;;;;8.00;91.90;;;;;;4306131;33;20648;-79
2021/03/15 11:22:51;;;;;;;;;;;8.10;91.80;;;;;;4305478;33;35767;-81
2021/03/15 11:25:23;;;;;;;;;;;8.10;91.70;;;;;;4317877;33;31080;-79
2021/03/15 11:27:55;;;;;;;;;;;8.10;91.70;;;;;;4330574;33;20017;-79
2021/03/15 11:30:29;;;;;;;;;;;8.10;91.60;;;;;;4330640;33;20016;-79
2021/03/15 11:33:06;;;;;;;;;;;8.10;91.60;;;;;;4317537;33;35219;-80
2021/03/15 11:35:39;;;;;;;;;;;8.00;91.50;;;;;;4318211;33;27401;-80
2021/03/15 11:38:09;;;;;;;;;;;8.00;91.50;;;;;;4317063;33;41549;-79
2021/03/15 11:40:42;;;;;;;;;;;8.00;91.60;;;;;;4317210;33;31230;-78
2021/03/15 11:43:14;;;;;;;;;;;8.00;91.70;;;;;;4330724;33;36108;-78
2021/03/15 11:45:44;;;;;;;;;;;8.00;91.90;;;;;;4330857;33;28832;-78
2021/03/15 11:48:13;;;;;;;;;;;8.00;92.00;;;;;;4332154;33;32589;-79
2021/03/15 11:50:44;;;;;;;;;;;8.10;92.10;;;;;;4333756;33;20015;-79
2021/03/15 11:53:13;;;;;;;;;;;8.10;92.00;;;;;;4333437;33;37780;-80
2021/03/15 11:55:45;;;;;;;;;;;8.10;92.10;;;;;;4320697;33;26029;-79
2021/03/15 11:58:12;;;;;;;;;;;8.20;92.10;;;;;;4320883;33;20080;-80
2021/03/15 12:00:44;;;;;;;;;;;8.20;92.00;;;;;;4334447;33;20395;-79
2021/03/15 12:03:17;;;;;;;;;;;8.20;91.90;;;;;;4334028;33;20017;-79
2021/03/15 12:05:47;;;;;;;;;;;8.20;91.90;;;;;;4308072;33;35836;-77
2021/03/15 12:08:19;;;;;;;;;;;8.20;91.70;;;;;;4333417;33;36468;-77
2021/03/15 12:10:50;;;;;;;;;;;8.20;91.70;;;;;;4332749;33;42343;-77
2021/03/15 12:13:22;;;;;;;;;;;8.10;91.60;;;;;;4320713;33;20226;-76
2021/03/15 12:15:54;;;;;;;;;;;8.00;91.60;;;;;;4334448;33;20453;-77
2021/03/15 12:18:29;;;;;;;;;;;8.00;91.70;;;;;;4320207;33;33156;-77
2021/03/15 12:20:59;;;;;;;;;;;8.00;91.70;;;;;;4332821;33;20458;-77
2021/03/15 12:23:31;;;;;;;;;;;8.00;91.70;;;;;;4334519;33;20396;-77
2021/03/15 12:26:00;;;;;;;;;;;8.00;91.70;;;;;;4333477;33;35156;-78
2021/03/15 12:28:30;;;;;;;;;;;8.00;91.70;;;;;;4333538;33;25328;-77
2021/03/15 12:30:59;;;;;;;;;;;8.00;91.70;;;;;;4333681;33;20021;-77
2021/03/15 12:33:31;;;;;;;;;;;8.00;91.80;;;;;;4320412;33;29829;-77
2021/03/15 12:36:03;;;;;;;;;;;8.00;91.90;;;;;;4319600;33;36522;-76
2021/03/15 12:38:33;;;;;;;;;;;8.00;92.00;;;;;;4319607;33;34190;-74
2021/03/15 12:41:05;;;;;;;;;;;8.00;92.00;;;;;;4333106;33;34342;-74
2021/03/15 12:43:34;;;;;;;;;;;8.00;92.00;;;;;;4333392;33;22491;-79
2021/03/15 12:46:06;;;;;;;;;;;8.10;92.10;;;;;;4320414;33;33500;-77
2021/03/15 12:48:36;;;;;;;;;;;8.10;92.20;;;;;;4333265;33;31241;-78
2021/03/15 12:51:09;;;;;;;;;;;8.10;92.20;;;;;;4332636;33;39392;-80
2021/03/15 12:53:36;;;;;;;;;;;8.20;92.20;;;;;;4319725;33;37466;-78
2021/03/15 12:56:06;;;;;;;;;;;8.20;92.20;;;;;;4332248;33;20497;-80
2021/03/15 12:58:42;;;;;;;;;;;8.30;91.90;;;;;;4308581;33;20002;-77
2021/03/15 13:01:09;;;;;;;;;;;8.30;92.10;;;;;;4319025;33;31230;-76
2021/03/15 13:03:39;;;;;;;;;;;8.30;91.90;;;;;;4319488;33;20044;-78
2021/03/15 13:06:06;;;;;;;;;;;8.40;92.00;;;;;;4320295;33;20020;-77
2021/03/15 13:08:35;;;;;;;;;;;8.50;92.00;;;;;;4332706;33;29550;-77
2021/03/15 13:11:05;;;;;;;;;;;8.50;91.90;;;;;;4319572;33;21533;-76
2021/03/15 13:13:32;;;;;;;;;;;8.50;91.80;;;;;;4333466;33;20068;-77
2021/03/15 13:16:11;;;;;;;;;;;8.60;91.70;;;;;;4320877;33;21432;-77
2021/03/15 13:18:39;;;;;;;;;;;8.60;91.60;;;;;;4318916;33;31282;-77
2021/03/15 13:21:10;;;;;;;;;;;8.60;91.50;;;;;;4307412;33;23950;-77
2021/03/15 13:23:36;;;;;;;;;;;8.60;91.50;;;;;;4332363;33;33754;-80
2021/03/15 13:26:03;;;;;;;;;;;8.60;91.50;;;;;;4332917;33;20005;-79
2021/03/15 13:28:32;;;;;;;;;;;8.60;91.50;;;;;;4332703;33;20010;-77
2021/03/15 13:31:08;;;;;;;;;;;8.50;91.50;;;;;;4319483;33;20648;-76
2021/03/15 13:33:40;;;;;;;;;;;8.50;91.50;;;;;;4333336;33;20051;-77
2021/03/15 13:36:13;;;;;;;;;;;8.60;91.70;;;;;;4319242;33;20394;-77
2021/03/15 13:38:46;;;;;;;;;;;8.50;91.80;;;;;;4319447;33;30012;-78
2021/03/15 13:41:15;;;;;;;;;;;8.60;91.90;;;;;;4332522;33;29603;-80
2021/03/15 13:43:46;;;;;;;;;;;8.60;91.90;;;;;;4319432;33;23076;-76
2021/03/15 13:46:18;;;;;;;;;;;8.70;91.80;;;;;;4319670;33;24758;-78
2021/03/15 13:48:45;;;;;;;;;;;8.70;91.80;;;;;;4332371;33;20006;-77
2021/03/15 13:51:12;;;;;;;;;;;8.70;91.80;;;;;;4331458;33;20194;-77
2021/03/15 13:53:47;;;;;;;;;;;8.80;91.70;;;;;;4307880;33;19998;-77
2021/03/15 13:56:16;;;;;;;;;;;8.80;91.60;;;;;;4332707;33;20047;-77
2021/03/15 13:58:43;;;;;;;;;;;8.90;91.60;;;;;;4319004;33;25614;-78
2021/03/15 14:01:13;;;;;;;;;;;8.90;91.60;;;;;;4319279;33;20009;-77
2021/03/15 14:03:40;;;;;;;;;;;8.90;91.50;;;;;;4331436;33;32627;-77
2021/03/15 14:06:07;;;;;;;;;;;8.90;91.40;;;;;;4306787;33;20331;-77
2021/03/15 14:08:33;;;;;;;;;;;8.90;91.30;;;;;;4318414;33;34799;-77
2021/03/15 14:11:00;;;;;;;;;;;8.90;91.30;;;;;;4331379;33;20454;-77
2021/03/15 14:13:27;;;;;;;;;;;8.90;91.40;;;;;;4306094;33;30942;-77
2021/03/15 14:15:53;;;;;;;;;;;8.90;91.40;;;;;;4318141;33;33425;-77
2021/03/15 14:18:22;;;;;;;;;;;8.90;91.40;;;;;;4332260;33;20089;-77
2021/03/15 14:20:54;;;;;;;;;;;8.80;91.50;;;;;;4306060;33;28348;-77
2021/03/15 14:23:21;;;;;;;;;;;8.80;91.90;;;;;;4332157;33;21725;-77
2021/03/15 14:25:50;;;;;;;;;;;8.80;91.50;;;;;;4318028;33;42377;-77
2021/03/15 14:28:20;;;;;;;;;;;8.80;91.60;;;;;;4319033;33;20014;-77
2021/03/15 14:30:49;;;;;;;;;;;8.80;91.60;;;;;;4319189;33;20028;-77
2021/03/15 14:33:21;;;;;;;;;;;8.80;91.60;;;;;;4318880;33;20061;-77
2021/03/15 14:35:51;;;;;;;;;;;8.80;91.70;;;;;;4307156;33;20024;-77
2021/03/15 14:38:21;;;;;;;;;;;8.80;91.70;;;;;;4330862;33;37338;-77
2021/03/15 14:40:50;;;;;;;;;;;8.80;91.70;;;;;;4317938;33;35046;-77
2021/03/15 14:43:20;;;;;;;;;;;8.90;91.80;;;;;;4318054;33;20060;-77
2021/03/15 14:45:54;;;;;;;;;;;8.90;91.70;;;;;;4329770;33;34323;-77
2021/03/15 14:48:24;;;;;;;;;;;8.90;91.70;;;;;;4317526;33;40832;-77
2021/03/15 14:50:54;;;;;;;;;;;9.00;91.60;;;;;;4330027;33;37181;-77
2021/03/15 14:53:23;;;;;;;;;;;9.00;91.50;;;;;;4317971;33;36883;-77
2021/03/15 14:55:52;;;;;;;;;;;9.10;91.40;;;;;;4331751;33;20017;-77
2021/03/15 14:58:21;;;;;;;;;;;9.10;91.40;;;;;;4331698;33;20049;-77